Time;durP1;ratioP1;P1;durP2;ratioP2;P2;SDS_P1;SDS_P2;PMS_P1;PMS_P2;Temp;Humidity;BMP_temperature;BMP_pressure;BME280_temperature;BME280_humidity;BME280_pressure;Samples;Min_cycle;Max_cycle;Signal;HPM_P1;HPM_P2
2022/09/28 00:02:34;;;;;;;3.50;1.55;;;12.90;99.90;;;;;;1902530;75;21155;-78
2022/09/28 00:08:09;;;;;;;2.60;1.40;;;13.00;99.90;;;;;;1934493;72;22198;-78
2022/09/28 00:11:01;;;;;;;4.50;1.60;;;12.90;99.90;;;;;;1897677;74;21809;-79
2022/09/28 00:13:55;;;;;;;2.87;1.60;;;12.90;99.90;;;;;;1886399;75;21105;-78
2022/09/28 00:16:47;;;;;;;3.27;1.62;;;12.90;99.90;;;;;;1889855;75;21654;-78
2022/09/28 00:19:38;;;;;;;4.25;1.80;;;12.90;99.90;;;;;;1887003;75;21162;-79
2022/09/28 00:22:30;;;;;;;3.60;1.95;;;12.90;99.90;;;;;;1890361;75;21051;-79
2022/09/28 00:27:59;;;;;;;3.35;1.20;;;12.80;99.90;;;;;;1914622;72;22191;-77
2022/09/28 00:30:55;;;;;;;2.75;1.47;;;12.80;99.90;;;;;;1921290;73;21180;-78
2022/09/28 00:33:50;;;;;;;4.55;1.40;;;12.70;99.90;;;;;;1926021;73;21055;-78
2022/09/28 00:36:44;;;;;;;2.58;1.30;;;12.80;99.90;;;;;;1919111;73;21138;-78
2022/09/28 00:39:40;;;;;;;3.47;1.40;;;12.90;99.90;;;;;;1922902;73;21062;-78
2022/09/28 00:42:31;;;;;;;3.50;1.37;;;12.90;99.90;;;;;;1917633;73;21112;-78
2022/09/28 00:45:25;;;;;;;2.95;0.98;;;12.90;99.90;;;;;;1920582;74;21157;-77
2022/09/28 00:48:16;;;;;;;1.92;1.07;;;12.90;99.90;;;;;;1926008;73;21050;-78
2022/09/28 00:53:49;;;;;;;4.65;1.20;;;12.80;99.90;;;;;;1941251;72;22145;-77
2022/09/28 00:56:43;;;;;;;2.65;1.20;;;12.80;99.90;;;;;;1921325;74;21509;-79
2022/09/28 00:59:35;;;;;;;2.08;1.05;;;12.80;99.90;;;;;;1895033;75;21195;-77
2022/09/28 01:05:09;;;;;;;2.67;1.10;;;12.60;99.90;;;;;;1956182;72;22127;-77
2022/09/28 01:08:02;;;;;;;3.90;1.00;;;12.60;99.90;;;;;;1898902;75;21432;-78
2022/09/28 01:10:53;;;;;;;6.35;1.00;;;12.70;99.90;;;;;;1895920;75;21070;-78
2022/09/28 01:13:46;;;;;;;1.80;0.90;;;12.70;99.90;;;;;;1906068;74;21106;-78
2022/09/28 01:16:40;;;;;;;2.60;1.00;;;12.70;99.90;;;;;;1886735;74;21063;-78
2022/09/28 01:20:03;;;;;;;2.98;0.80;;;12.70;99.90;;;;;;1889348;75;21050;-78
2022/09/28 01:23:26;;;;;;;2.37;0.80;;;12.70;99.90;;;;;;1838281;76;21104;-78
2022/09/28 01:26:46;;;;;;;3.17;0.70;;;12.60;99.90;;;;;;1895935;75;21126;-78
2022/09/28 01:29:47;;;;;;;3.62;0.78;;;12.70;99.90;;;;;;1871518;75;21279;-78
2022/09/28 01:35:21;;;;;;;2.22;0.95;;;12.40;99.90;;;;;;1952569;72;22225;-77
2022/09/28 01:38:16;;;;;;;2.95;0.80;;;12.40;99.90;;;;;;1908023;75;21071;-78
2022/09/28 01:43:51;;;;;;;2.58;0.72;;;12.40;99.90;;;;;;1953272;72;22155;-79
2022/09/28 01:46:44;;;;;;;2.47;0.80;;;12.40;99.90;;;;;;1913638;75;21718;-78
2022/09/28 01:49:41;;;;;;;2.52;0.70;;;12.50;99.90;;;;;;1895586;75;21063;-78
2022/09/28 01:57:58;;;;;;;3.08;0.90;;;12.60;99.90;;;;;;1937243;72;22142;-77
2022/09/28 02:00:52;;;;;;;0.98;0.50;;;12.60;99.90;;;;;;1890651;75;21132;-78
2022/09/28 02:03:48;;;;;;;2.47;0.57;;;12.60;99.90;;;;;;1884696;75;21062;-78
2022/09/28 02:06:44;;;;;;;1.90;0.70;;;12.60;99.90;;;;;;1884738;75;21514;-78
2022/09/28 02:09:38;;;;;;;2.55;0.60;;;12.60;99.90;;;;;;1894766;75;21146;-77
2022/09/28 02:12:33;;;;;;;2.37;0.60;;;12.60;99.90;;;;;;1895483;75;21653;-78
2022/09/28 02:15:28;;;;;;;1.65;0.80;;;12.50;99.90;;;;;;1892275;75;21055;-79
2022/09/28 02:18:20;;;;;;;1.98;0.60;;;12.50;99.90;;;;;;1870881;76;21533;-78
2022/09/28 02:21:14;;;;;;;3.10;0.65;;;12.40;99.90;;;;;;1869339;76;21156;-78
2022/09/28 02:24:09;;;;;;;3.45;0.70;;;12.50;99.90;;;;;;1861830;76;21089;-78
2022/09/28 02:29:52;;;;;;;1.20;0.50;;;12.40;99.90;;;;;;1963957;72;22222;-77
2022/09/28 02:35:23;;;;;;;3.83;0.60;;;12.30;99.90;;;;;;1936322;72;22785;-78
2022/09/28 02:38:15;;;;;;;1.45;0.68;;;12.30;99.90;;;;;;1912742;75;21138;-78
2022/09/28 02:43:52;;;;;;;3.70;0.60;;;12.10;99.90;;;;;;1932665;72;22287;-78
2022/09/28 02:49:29;;;;;;;1.62;0.72;;;12.00;99.90;;;;;;1941467;72;22252;-80
2022/09/28 02:52:30;;;;;;;3.02;0.80;;;12.10;99.90;;;;;;1906469;75;21076;-79
2022/09/28 02:55:27;;;;;;;2.15;0.60;;;12.20;99.90;;;;;;1901076;75;21132;-79
2022/09/28 02:58:26;;;;;;;2.47;0.50;;;12.30;99.90;;;;;;1895339;75;21055;-78
2022/09/28 03:01:22;;;;;;;3.08;1.10;;;12.30;99.90;;;;;;1898180;75;21094;-78
2022/09/28 03:04:18;;;;;;;2.52;0.60;;;12.20;99.90;;;;;;1905020;75;21627;-78
2022/09/28 03:07:12;;;;;;;1.62;0.50;;;12.20;99.90;;;;;;1884614;76;21073;-82
2022/09/28 03:10:08;;;;;;;1.30;0.70;;;12.20;99.90;;;;;;1884586;76;21490;-82
2022/09/28 03:13:00;;;;;;;2.55;0.78;;;12.20;99.90;;;;;;1884542;76;21189;-82
2022/09/28 03:15:52;;;;;;;1.30;0.60;;;12.30;99.90;;;;;;1893787;75;21423;-82
2022/09/28 03:18:44;;;;;;;3.02;0.50;;;12.30;99.90;;;;;;1884627;75;21144;-82
2022/09/28 03:21:36;;;;;;;2.92;0.60;;;12.30;99.90;;;;;;1891547;75;21091;-82
2022/09/28 03:24:29;;;;;;;1.45;0.45;;;12.40;99.90;;;;;;1884540;75;21110;-84
2022/09/28 03:27:20;;;;;;;2.00;0.70;;;12.40;99.90;;;;;;1887913;75;21078;-82
2022/09/28 03:33:01;;;;;;;1.42;0.55;;;12.50;99.90;;;;;;1939474;72;22723;-81
2022/09/28 03:35:53;;;;;;;1.65;0.53;;;12.50;99.90;;;;;;1924939;74;21520;-83
2022/09/28 03:38:45;;;;;;;0.70;0.50;;;12.40;99.90;;;;;;1912119;75;21113;-83
2022/09/28 03:41:37;;;;;;;4.10;0.80;;;12.40;99.90;;;;;;1888599;75;21058;-82
2022/09/28 03:44:28;;;;;;;1.90;0.53;;;12.40;99.90;;;;;;1910080;74;21039;-82
2022/09/28 03:47:20;;;;;;;1.02;0.40;;;12.40;99.90;;;;;;1915604;74;21056;-83
2022/09/28 03:50:11;;;;;;;2.15;0.53;;;12.40;99.90;;;;;;1921514;74;21565;-83
2022/09/28 03:53:06;;;;;;;1.42;0.50;;;12.40;99.90;;;;;;1915794;74;21032;-83
2022/09/28 03:55:59;;;;;;;2.75;0.78;;;12.50;99.90;;;;;;1919689;74;21115;-83
2022/09/28 03:58:51;;;;;;;1.60;0.50;;;12.40;99.90;;;;;;1897393;75;21080;-83
2022/09/28 04:01:43;;;;;;;1.98;0.72;;;12.40;99.90;;;;;;1919460;74;21513;-82
2022/09/28 04:04:35;;;;;;;1.80;0.42;;;12.40;99.90;;;;;;1921134;74;21156;-82
2022/09/28 04:07:26;;;;;;;3.22;0.78;;;12.30;99.90;;;;;;1917598;75;21611;-82
2022/09/28 04:10:18;;;;;;;1.20;0.50;;;12.30;99.90;;;;;;1901250;74;21130;-82
2022/09/28 04:13:10;;;;;;;4.22;0.60;;;12.20;99.90;;;;;;1915823;75;21164;-82
2022/09/28 04:16:03;;;;;;;2.67;0.60;;;12.10;99.90;;;;;;1909003;75;21545;-83
2022/09/28 04:18:58;;;;;;;1.40;0.70;;;12.00;99.90;;;;;;1930763;74;21036;-82
2022/09/28 04:21:57;;;;;;;1.98;0.72;;;12.00;99.90;;;;;;1913797;74;21486;-82
2022/09/28 04:24:49;;;;;;;2.83;0.70;;;12.10;99.90;;;;;;1912175;75;21102;-82
2022/09/28 04:30:50;;;;;;;2.60;0.60;;;12.30;99.90;;;;;;1912042;75;21107;-84
2022/09/28 04:33:41;;;;;;;2.67;1.00;;;12.10;99.90;;;;;;1901900;74;21147;-83
2022/09/28 04:39:14;;;;;;;2.02;0.70;;;12.20;99.90;;;;;;1936298;72;22128;-81
2022/09/28 04:42:08;;;;;;;3.35;0.90;;;12.20;99.90;;;;;;1912476;73;21108;-83
2022/09/28 04:45:03;;;;;;;2.35;0.85;;;12.20;99.90;;;;;;1898701;75;21067;-82
2022/09/28 04:47:55;;;;;;;1.50;0.80;;;12.20;99.90;;;;;;1930478;73;21209;-83
2022/09/28 04:50:55;;;;;;;1.92;0.80;;;12.10;99.90;;;;;;1916349;73;21187;-82
2022/09/28 04:53:46;;;;;;;4.25;1.00;;;12.20;99.90;;;;;;1908218;74;21084;-82
2022/09/28 04:56:37;;;;;;;3.33;0.90;;;12.30;99.90;;;;;;1926347;73;21135;-82
2022/09/28 04:59:40;;;;;;;4.55;1.20;;;12.30;99.90;;;;;;1926416;73;21159;-82
2022/09/28 05:02:31;;;;;;;3.35;0.98;;;12.30;99.90;;;;;;1850566;77;21117;-82
2022/09/28 05:05:45;;;;;;;2.20;0.70;;;12.30;99.90;;;;;;1852284;77;21069;-82
2022/09/28 05:08:40;;;;;;;2.72;1.10;;;12.30;99.90;;;;;;1837691;77;21619;-82
2022/09/28 05:11:32;;;;;;;3.75;1.32;;;12.20;99.90;;;;;;1852134;76;21148;-82
2022/09/28 05:14:25;;;;;;;2.77;0.90;;;12.30;99.90;;;;;;1841108;76;21093;-84
2022/09/28 05:17:16;;;;;;;1.72;0.75;;;12.30;99.90;;;;;;1859671;76;21124;-82
2022/09/28 05:20:25;;;;;;;2.50;0.88;;;12.20;99.90;;;;;;1845853;76;21081;-81
2022/09/28 05:23:16;;;;;;;2.40;1.12;;;12.30;99.90;;;;;;1857206;76;21124;-82
2022/09/28 05:28:46;;;;;;;1.67;0.70;;;12.30;99.90;;;;;;1947094;72;22299;-81
2022/09/28 05:31:48;;;;;;;2.67;0.90;;;12.30;99.90;;;;;;1895286;74;21120;-83
2022/09/28 05:34:50;;;;;;;3.45;1.15;;;12.30;99.90;;;;;;1867003;75;21063;-84
2022/09/28 05:40:22;;;;;;;4.12;0.98;;;12.30;99.90;;;;;;1917963;72;22706;-85
2022/09/28 05:43:14;;;;;;;3.22;1.07;;;12.20;99.90;;;;;;1905839;74;21142;-82
2022/09/28 05:46:06;;;;;;;2.25;0.93;;;12.20;99.90;;;;;;1905758;73;21018;-83
2022/09/28 05:48:59;;;;;;;3.10;1.10;;;12.30;99.90;;;;;;1909069;73;21067;-82
2022/09/28 05:51:51;;;;;;;2.75;0.93;;;12.20;99.90;;;;;;1891309;74;21040;-82
2022/09/28 05:54:43;;;;;;;2.77;1.10;;;12.10;99.90;;;;;;1896243;74;21040;-82
2022/09/28 05:57:35;;;;;;;3.92;1.10;;;12.10;99.90;;;;;;1929668;73;21091;-84
2022/09/28 06:03:12;;;;;;;3.77;1.10;;;12.30;99.90;;;;;;1931722;72;22170;-82
2022/09/28 06:06:03;;;;;;;3.33;1.15;;;12.30;99.90;;;;;;1894962;75;21216;-82
2022/09/28 06:08:55;;;;;;;2.83;0.88;;;12.30;99.90;;;;;;1875496;75;21064;-82
2022/09/28 06:14:36;;;;;;;2.20;1.10;;;12.40;99.90;;;;;;1928482;72;22198;-82
2022/09/28 06:17:27;;;;;;;2.62;0.90;;;12.40;99.90;;;;;;1903080;75;21228;-81
2022/09/28 06:20:39;;;;;;;3.92;1.37;;;12.50;99.90;;;;;;1889682;75;21158;-82
2022/09/28 06:23:38;;;;;;;1.12;0.75;;;12.40;99.90;;;;;;1897982;75;21546;-82
2022/09/28 06:26:32;;;;;;;3.12;0.80;;;12.10;99.90;;;;;;1898852;75;21152;-82
2022/09/28 06:29:24;;;;;;;2.72;1.02;;;12.20;99.90;;;;;;1892538;75;21088;-82
2022/09/28 06:32:15;;;;;;;0.90;0.60;;;12.20;99.90;;;;;;1906848;75;21047;-83
2022/09/28 06:35:09;;;;;;;3.10;0.80;;;12.20;99.90;;;;;;1887460;75;21065;-83
2022/09/28 06:38:01;;;;;;;2.87;1.07;;;12.20;99.90;;;;;;1884566;76;21074;-84
2022/09/28 06:43:33;;;;;;;3.15;1.00;;;12.20;99.90;;;;;;1933651;72;22217;-84
2022/09/28 06:46:42;;;;;;;3.40;0.98;;;12.20;99.90;;;;;;1900937;75;21129;-82
2022/09/28 06:49:44;;;;;;;2.92;1.17;;;12.30;99.90;;;;;;1892646;75;21099;-83
2022/09/28 06:52:41;;;;;;;3.90;0.98;;;12.40;99.90;;;;;;1903308;75;21172;-83
2022/09/28 06:55:34;;;;;;;2.83;1.00;;;12.50;99.90;;;;;;1884144;75;21150;-83
2022/09/28 06:58:27;;;;;;;3.20;1.50;;;12.60;99.90;;;;;;1880907;75;21137;-84
2022/09/28 07:01:20;;;;;;;5.80;1.35;;;12.60;99.90;;;;;;1894041;74;21121;-82
2022/09/28 07:04:15;;;;;;;3.98;1.07;;;12.60;99.90;;;;;;1915256;74;21162;-84
2022/09/28 07:07:25;;;;;;;4.35;1.27;;;12.60;99.90;;;;;;1895043;75;21117;-84
2022/09/28 07:10:35;;;;;;;3.27;1.10;;;12.70;99.90;;;;;;1885206;75;21106;-83
2022/09/28 07:13:29;;;;;;;4.00;1.15;;;12.70;99.90;;;;;;1885478;75;21541;-83
2022/09/28 07:16:23;;;;;;;3.10;1.10;;;12.70;99.90;;;;;;1905831;75;21110;-84
2022/09/28 07:19:17;;;;;;;2.08;1.00;;;12.80;99.90;;;;;;1884731;75;21129;-82
2022/09/28 07:22:13;;;;;;;5.30;1.95;;;12.80;99.90;;;;;;1906812;75;21164;-83
2022/09/28 07:25:08;;;;;;;4.53;1.20;;;12.80;99.90;;;;;;1884862;75;21066;-82
2022/09/28 07:28:02;;;;;;;1.98;1.10;;;12.90;99.90;;;;;;1896210;75;21134;-83
2022/09/28 07:33:38;;;;;;;1.80;1.05;;;13.20;99.90;;;;;;1957484;72;22154;-83
2022/09/28 07:36:40;;;;;;;3.80;1.37;;;13.20;99.90;;;;;;1917561;73;21135;-83
2022/09/28 07:41:10;;;;;;;3.20;1.20;;;13.30;99.90;;;;;;1917520;75;21087;-83
2022/09/28 07:42:28;;;;;;;2.22;1.02;;;13.30;99.90;;;;;;1940903;73;21212;-83
2022/09/28 07:45:22;;;;;;;2.42;1.60;;;13.30;99.90;;;;;;1921213;73;21051;-82
2022/09/28 07:48:14;;;;;;;3.20;1.02;;;13.40;99.90;;;;;;1932993;73;21132;-82
2022/09/28 07:51:27;;;;;;;1.85;1.05;;;13.40;99.90;;;;;;1926826;73;21737;-83
2022/09/28 07:54:26;;;;;;;2.30;0.90;;;13.50;99.90;;;;;;1838247;76;21134;-83
2022/09/28 08:00:07;;;;;;;1.98;0.90;;;13.70;99.90;;;;;;1952486;72;22227;-82
2022/09/28 08:03:06;;;;;;;2.17;1.10;;;13.70;99.90;;;;;;1940608;73;21150;-82
2022/09/28 08:06:00;;;;;;;1.87;0.80;;;13.80;99.90;;;;;;1920337;73;21115;-83
2022/09/28 08:08:55;;;;;;;1.07;0.80;;;13.70;99.90;;;;;;1920390;73;21130;-82
2022/09/28 08:11:46;;;;;;;1.52;0.80;;;13.70;99.90;;;;;;1917075;75;21482;-83
2022/09/28 08:14:49;;;;;;;1.77;0.80;;;13.90;99.90;;;;;;1921180;73;21109;-83
2022/09/28 08:17:50;;;;;;;1.32;0.70;;;14.00;99.90;;;;;;1916627;73;21143;-83
2022/09/28 08:23:53;;;;;;;1.60;0.95;;;14.30;99.90;;;;;;1928616;73;21163;-83
2022/09/28 08:26:48;;;;;;;2.42;0.90;;;14.50;99.90;;;;;;1917272;73;21094;-82
2022/09/28 08:29:41;;;;;;;2.05;1.00;;;14.60;99.90;;;;;;1931057;73;21054;-82
2022/09/28 08:32:37;;;;;;;1.52;0.60;;;14.50;99.90;;;;;;1920692;73;21530;-83
2022/09/28 08:40:54;;;;;;;2.30;0.80;;;14.40;99.90;;;;;;1926693;72;22690;-84
2022/09/28 08:44:03;;;;;;;2.52;0.90;;;14.40;99.90;;;;;;1885640;74;21617;-84
2022/09/28 08:46:59;;;;;;;2.90;1.07;;;14.30;99.90;;;;;;1919045;74;21052;-83
2022/09/28 08:50:00;;;;;;;1.92;0.93;;;14.20;99.90;;;;;;1897653;75;21100;-83
2022/09/28 08:55:35;;;;;;;3.33;1.35;;;14.30;99.90;;;;;;1930327;72;22616;-83
2022/09/28 08:58:31;;;;;;;2.72;1.10;;;14.30;99.90;;;;;;1891868;75;21099;-82
2022/09/28 09:01:26;;;;;;;4.72;1.00;;;14.40;99.90;;;;;;1897698;75;21125;-83
2022/09/28 09:04:18;;;;;;;2.00;1.10;;;14.60;99.90;;;;;;1913124;75;21205;-83
2022/09/28 09:07:55;;;;;;;2.20;1.10;;;14.60;99.90;;;;;;1906080;75;21102;-82
2022/09/28 09:13:44;;;;;;;3.25;1.20;;;14.50;99.90;;;;;;1952220;72;22167;-83
2022/09/28 09:16:48;;;;;;;1.42;0.80;;;14.50;99.90;;;;;;1887567;75;21086;-84
2022/09/28 09:20:01;;;;;;;1.07;0.80;;;14.50;99.90;;;;;;1889600;75;21051;-83
2022/09/28 09:22:59;;;;;;;1.80;0.80;;;14.50;99.90;;;;;;1897942;75;21471;-82
2022/09/28 09:25:54;;;;;;;1.80;0.80;;;14.80;99.90;;;;;;1897812;75;21149;-83
2022/09/28 09:29:08;;;;;;;2.35;0.80;;;15.00;99.90;;;;;;1908033;74;21548;-82
2022/09/28 09:32:17;;;;;;;2.37;0.90;;;15.20;99.90;;;;;;1881449;75;21164;-83
2022/09/28 09:35:22;;;;;;;3.00;0.90;;;15.40;99.90;;;;;;1884673;76;21097;-83
2022/09/28 09:41:41;;;;;;;2.47;0.80;;;15.60;99.90;;;;;;1939867;72;22181;-82
2022/09/28 09:47:37;;;;;;;2.65;0.80;;;15.50;99.90;;;;;;1938144;72;22166;-84
2022/09/28 09:50:33;;;;;;;2.85;0.93;;;15.60;99.90;;;;;;1900263;74;21188;-82
2022/09/28 09:53:29;;;;;;;1.98;0.90;;;15.60;99.90;;;;;;1897637;75;21145;-83
2022/09/28 09:56:24;;;;;;;1.77;0.98;;;15.50;99.90;;;;;;1894749;75;21102;-82
2022/09/28 09:59:24;;;;;;;1.20;0.80;;;15.40;99.90;;;;;;1888840;75;21099;-83
2022/09/28 10:02:24;;;;;;;40.23;24.12;;;15.20;99.90;;;;;;1900312;75;21131;-83
2022/09/28 10:05:22;;;;;;;2.45;0.90;;;15.30;99.90;;;;;;1885024;75;21070;-83
2022/09/28 10:08:17;;;;;;;5.85;0.80;;;15.40;99.90;;;;;;1906474;75;21127;-83
2022/09/28 10:11:13;;;;;;;1.85;0.90;;;15.40;99.90;;;;;;1906587;75;21152;-83
2022/09/28 10:14:07;;;;;;;2.20;0.85;;;15.40;99.90;;;;;;1884600;75;22225;-83
2022/09/28 10:17:01;;;;;;;2.33;1.42;;;15.40;99.90;;;;;;1901446;75;21047;-83
2022/09/28 10:20:16;;;;;;;1.80;0.90;;;15.40;99.90;;;;;;1900159;75;21510;-82
2022/09/28 10:23:15;;;;;;;2.25;0.70;;;15.40;99.90;;;;;;1904810;75;21107;-82
2022/09/28 10:26:10;;;;;;;5.67;1.05;;;15.30;99.90;;;;;;1906598;75;21549;-82
2022/09/28 10:29:03;;;;;;;2.95;0.70;;;15.20;99.90;;;;;;1906627;75;21130;-82
2022/09/28 10:31:55;;;;;;;1.85;0.90;;;15.10;99.90;;;;;;1906522;75;21160;-82
2022/09/28 10:34:48;;;;;;;2.15;1.00;;;15.00;99.90;;;;;;1901475;75;21094;-82
2022/09/28 10:40:46;;;;;;;2.22;1.10;;;14.90;99.90;;;;;;1942146;72;22327;-83
2022/09/28 10:43:42;;;;;;;2.30;0.98;;;15.00;99.90;;;;;;1928244;74;21175;-83
2022/09/28 10:46:36;;;;;;;2.15;1.00;;;14.90;99.90;;;;;;1905418;75;21126;-83
2022/09/28 10:49:33;;;;;;;2.87;1.42;;;14.80;99.90;;;;;;1905421;75;21217;-82
2022/09/28 10:52:40;;;;;;;3.65;1.40;;;14.80;99.90;;;;;;1905587;75;21216;-83
2022/09/28 10:55:35;;;;;;;2.35;1.50;;;14.80;99.90;;;;;;1905385;75;21105;-82
2022/09/28 10:58:31;;;;;;;3.05;1.17;;;14.90;99.90;;;;;;1905379;75;21058;-83
2022/09/28 11:01:27;;;;;;;5.53;1.80;;;15.00;99.90;;;;;;1928045;74;21098;-84
2022/09/28 11:04:22;;;;;;;3.92;1.87;;;15.20;99.90;;;;;;1905244;74;21621;-84
2022/09/28 11:07:19;;;;;;;5.67;1.80;;;15.40;99.90;;;;;;1905236;75;21083;-83
2022/09/28 11:10:19;;;;;;;4.03;2.10;;;15.50;99.90;;;;;;1917719;74;21046;-83
2022/09/28 11:13:11;;;;;;;3.00;1.70;;;15.60;99.90;;;;;;1907220;74;21053;-83
2022/09/28 11:16:04;;;;;;;4.53;2.77;;;15.70;99.90;;;;;;1905152;75;21095;-83
2022/09/28 11:18:58;;;;;;;3.80;2.50;;;15.70;99.90;;;;;;1926443;74;21120;-82
2022/09/28 11:21:50;;;;;;;4.90;2.77;;;15.90;99.90;;;;;;1923231;74;21103;-82
2022/09/28 11:24:44;;;;;;;5.33;2.90;;;16.00;99.90;;;;;;1914522;74;21091;-82
2022/09/28 11:27:35;;;;;;;4.67;2.92;;;16.10;99.90;;;;;;1905161;75;21595;-82
2022/09/28 11:30:30;;;;;;;5.80;3.27;;;16.10;99.90;;;;;;1905396;75;21092;-84
2022/09/28 11:33:33;;;;;;;5.40;2.80;;;16.20;99.90;;;;;;1905295;75;21133;-84
2022/09/28 11:37:14;;;;;;;5.33;2.45;;;16.30;99.90;;;;;;1924399;74;21048;-83
2022/09/28 11:40:19;;;;;;;3.50;2.10;;;16.30;99.90;;;;;;1914826;73;21071;-83
2022/09/28 11:43:13;;;;;;;5.30;3.58;;;16.20;99.90;;;;;;1897121;75;21059;-83
2022/09/28 11:48:52;;;;;;;4.70;1.95;;;16.30;99.90;;;;;;1944773;72;22178;-82
2022/09/28 11:51:46;;;;;;;2.90;1.80;;;16.30;99.90;;;;;;1889172;75;21560;-82
2022/09/28 11:54:43;;;;;;;4.33;2.15;;;16.30;99.90;;;;;;1896024;75;21146;-82
2022/09/28 11:57:37;;;;;;;3.70;1.95;;;16.30;99.90;;;;;;1902176;75;21082;-83
2022/09/28 12:00:31;;;;;;;4.47;1.85;;;16.20;99.90;;;;;;1897643;75;21149;-83
2022/09/28 12:03:26;;;;;;;2.45;1.42;;;16.10;99.90;;;;;;1895114;75;21137;-83
2022/09/28 12:06:21;;;;;;;2.90;1.72;;;16.00;99.90;;;;;;1897176;75;21063;-83
2022/09/28 12:09:17;;;;;;;7.42;2.00;;;16.00;99.90;;;;;;1880389;76;21057;-83
2022/09/28 12:12:15;;;;;;;4.45;1.62;;;16.20;99.90;;;;;;1902572;75;21059;-82
2022/09/28 12:15:15;;;;;;;3.87;1.92;;;16.10;99.90;;;;;;1896991;75;21117;-83
2022/09/28 12:18:10;;;;;;;3.33;1.80;;;16.00;99.90;;;;;;1894347;75;21672;-83
2022/09/28 12:21:08;;;;;;;3.52;1.50;;;16.10;99.90;;;;;;1890236;75;21051;-82
2022/09/28 12:24:04;;;;;;;3.95;1.90;;;16.40;99.90;;;;;;1907747;75;21225;-82
2022/09/28 12:26:59;;;;;;;4.33;1.80;;;16.70;99.90;;;;;;1917593;75;21555;-83
2022/09/28 12:29:55;;;;;;;3.60;2.02;;;16.80;99.90;;;;;;1899844;75;21058;-82
2022/09/28 12:32:50;;;;;;;2.95;1.45;;;16.80;99.90;;;;;;1895343;75;21068;-82
2022/09/28 12:35:51;;;;;;;2.00;1.35;;;16.90;99.90;;;;;;1895374;75;21164;-82
2022/09/28 12:38:51;;;;;;;2.27;1.40;;;17.10;99.90;;;;;;1895352;75;21125;-83
2022/09/28 12:41:51;;;;;;;1.87;1.15;;;17.40;99.90;;;;;;1896179;75;21114;-83
2022/09/28 12:44:52;;;;;;;3.62;1.57;;;17.60;99.90;;;;;;1901998;75;21078;-82
2022/09/28 12:51:11;;;;;;;2.42;1.60;;;18.10;99.90;;;;;;1976189;72;22189;-82
2022/09/28 12:54:12;;;;;;;1.95;1.20;;;18.30;99.90;;;;;;1917301;75;21203;-84
2022/09/28 12:57:09;;;;;;;2.33;1.10;;;18.40;99.90;;;;;;1917700;75;21051;-83
2022/09/28 13:00:05;;;;;;;2.57;1.10;;;18.60;99.90;;;;;;1917842;75;21139;-82
2022/09/28 13:03:30;;;;;;;2.80;0.80;;;18.70;99.90;;;;;;1917651;75;21182;-83
2022/09/28 13:06:39;;;;;;;1.45;0.82;;;18.60;99.90;;;;;;1924048;73;21202;-83
2022/09/28 13:12:25;;;;;;;5.33;1.50;;;18.50;99.90;;;;;;1955021;72;22252;-82
2022/09/28 13:15:30;;;;;;;1.87;1.12;;;18.40;99.90;;;;;;1904483;74;21568;-82
2022/09/28 13:18:28;;;;;;;2.50;1.40;;;18.30;99.90;;;;;;1897464;75;21141;-82
2022/09/28 13:21:27;;;;;;;1.50;1.10;;;18.30;99.90;;;;;;1895549;75;21153;-83
2022/09/28 13:24:23;;;;;;;1.72;0.88;;;18.10;99.90;;;;;;1894695;75;21155;-83
2022/09/28 13:27:20;;;;;;;1.10;0.88;;;18.00;99.90;;;;;;1894015;75;21503;-83
2022/09/28 13:30:16;;;;;;;1.35;0.90;;;18.00;99.90;;;;;;1903963;75;21114;-83
2022/09/28 13:33:12;;;;;;;1.50;0.70;;;18.10;99.90;;;;;;1884707;76;21172;-82
2022/09/28 13:36:04;;;;;;;1.10;0.80;;;18.20;99.90;;;;;;1906702;75;21220;-83
2022/09/28 13:38:58;;;;;;;1.07;0.75;;;18.20;99.90;;;;;;1890489;75;21179;-83
2022/09/28 13:41:50;;;;;;;0.72;0.60;;;18.30;99.90;;;;;;1895682;75;21124;-83
2022/09/28 13:48:14;;;;;;;2.20;0.98;;;18.80;99.90;;;;;;1954593;72;22775;-82
2022/09/28 13:51:31;;;;;;;1.52;0.80;;;18.70;99.90;;;;;;1898045;75;21522;-82
2022/09/28 13:54:32;;;;;;;1.32;0.72;;;18.60;99.90;;;;;;1902865;75;21090;-82
2022/09/28 13:57:28;;;;;;;1.02;0.55;;;18.50;99.90;;;;;;1900552;75;21125;-83
2022/09/28 14:00:23;;;;;;;0.70;0.70;;;18.40;99.90;;;;;;1895717;75;21125;-83
2022/09/28 14:03:33;;;;;;;1.30;0.80;;;18.20;99.90;;;;;;1889319;75;21055;-83
2022/09/28 14:06:29;;;;;;;1.27;0.70;;;18.20;99.90;;;;;;1882361;75;21063;-82
2022/09/28 14:09:32;;;;;;;1.60;0.72;;;18.10;99.90;;;;;;1893534;75;21114;-83
2022/09/28 14:12:53;;;;;;;1.00;0.55;;;18.10;99.90;;;;;;1884529;76;21054;-82
2022/09/28 14:15:56;;;;;;;1.92;0.80;;;18.20;99.90;;;;;;1884126;75;21122;-82
2022/09/28 14:18:50;;;;;;;1.52;0.88;;;18.30;99.90;;;;;;1884682;75;21206;-82
2022/09/28 14:22:09;;;;;;;0.85;0.50;;;18.10;99.90;;;;;;1899298;75;21130;-83
2022/09/28 14:25:09;;;;;;;0.75;0.55;;;18.20;99.90;;;;;;1892491;75;21150;-82
2022/09/28 14:28:05;;;;;;;0.80;0.60;;;18.30;99.90;;;;;;1896615;75;21066;-82
2022/09/28 14:30:58;;;;;;;1.45;0.45;;;18.40;99.90;;;;;;1895349;75;21523;-82
2022/09/28 14:33:58;;;;;;;1.35;0.65;;;18.40;99.90;;;;;;1892925;75;21586;-82
2022/09/28 14:46:44;;;;;;;1.90;0.80;;;17.80;99.90;;;;;;1957953;72;22161;-84
2022/09/28 14:49:50;;;;;;;1.42;0.60;;;17.70;99.90;;;;;;1897955;75;21139;-82
2022/09/28 14:52:47;;;;;;;1.60;0.65;;;17.50;99.90;;;;;;1902651;75;21078;-83
2022/09/28 14:55:44;;;;;;;1.77;0.80;;;17.20;99.90;;;;;;1903218;75;21055;-84
2022/09/28 14:58:38;;;;;;;2.12;0.80;;;17.10;99.90;;;;;;1906405;75;21140;-82
2022/09/28 15:01:30;;;;;;;1.22;0.80;;;17.20;99.90;;;;;;1906780;75;21090;-83
2022/09/28 15:04:24;;;;;;;1.90;1.12;;;17.20;99.90;;;;;;1898740;75;21102;-82
2022/09/28 15:07:22;;;;;;;1.07;0.80;;;17.10;99.90;;;;;;1898194;75;21063;-83
2022/09/28 15:10:30;;;;;;;2.43;0.83;;;16.90;99.90;;;;;;1885048;76;21098;-82
2022/09/28 15:13:25;;;;;;;1.15;0.60;;;16.80;99.90;;;;;;1896993;75;21327;-83
2022/09/28 15:16:20;;;;;;;0.95;0.72;;;16.60;99.90;;;;;;1917659;75;21160;-83
2022/09/28 15:19:20;;;;;;;3.15;0.80;;;16.20;99.90;;;;;;1895667;75;21557;-85
2022/09/28 15:22:17;;;;;;;2.95;0.40;;;15.90;99.90;;;;;;1895600;75;21120;-85
2022/09/28 15:25:13;;;;;;;1.62;0.37;;;15.50;99.90;;;;;;1894570;75;21098;-88
2022/09/28 15:28:15;;;;;;;0.30;0.20;;;15.10;99.90;;;;;;1885023;76;21063;-87
2022/09/28 15:31:07;;;;;;;0.10;0.10;;;14.80;99.90;;;;;;1895711;75;21055;-88
2022/09/28 15:37:10;;;;;;;0.42;0.15;;;14.50;99.90;;;;;;1884722;76;21148;-88
2022/09/28 15:40:03;;;;;;;0.78;0.30;;;14.60;99.90;;;;;;1906310;75;21042;-87
2022/09/28 15:42:55;;;;;;;0.40;0.20;;;14.50;99.90;;;;;;1901633;75;21080;-87
2022/09/28 15:45:52;;;;;;;0.10;0.10;;;14.60;99.90;;;;;;1893586;74;21083;-87
2022/09/28 15:51:28;;;;;;;0.50;0.30;;;14.40;99.90;;;;;;1975452;72;22169;-87
2022/09/28 15:54:23;;;;;;;0.30;0.20;;;14.40;99.90;;;;;;1917657;75;21043;-86
2022/09/28 15:57:35;;;;;;;0.10;0.00;;;14.60;99.90;;;;;;1917755;75;21058;-86
2022/09/28 16:00:30;;;;;;;0.72;0.20;;;14.70;99.90;;;;;;1917605;75;21043;-85
2022/09/28 16:03:25;;;;;;;0.70;0.35;;;14.90;99.90;;;;;;1917562;75;21051;-87
2022/09/28 16:08:57;;;;;;;0.98;0.20;;;15.00;99.90;;;;;;1954372;72;22177;-86
2022/09/28 16:11:49;;;;;;;1.55;0.17;;;15.00;99.90;;;;;;1898130;75;21179;-84
2022/09/28 16:14:41;;;;;;;0.85;0.40;;;15.00;99.90;;;;;;1895947;75;21095;-86
2022/09/28 16:17:35;;;;;;;3.20;1.32;;;15.00;99.90;;;;;;1914220;75;21089;-85
2022/09/28 16:20:30;;;;;;;2.35;0.80;;;15.00;99.90;;;;;;1906084;75;21144;-85
2022/09/28 16:23:25;;;;;;;1.95;0.57;;;15.00;99.90;;;;;;1901599;75;21117;-84
2022/09/28 16:26:19;;;;;;;0.50;0.20;;;15.00;99.90;;;;;;1897116;75;21113;-84
2022/09/28 16:32:24;;;;;;;2.58;0.75;;;15.00;99.90;;;;;;1933120;72;22139;-85
2022/09/28 16:35:22;;;;;;;1.22;0.50;;;15.00;99.90;;;;;;1909125;75;21172;-86
2022/09/28 16:38:19;;;;;;;2.95;0.93;;;15.00;99.90;;;;;;1917787;75;21102;-86
2022/09/28 16:41:12;;;;;;;0.62;0.57;;;14.90;99.90;;;;;;1900631;75;21086;-86
2022/09/28 16:44:04;;;;;;;1.52;0.80;;;14.90;99.90;;;;;;1897188;75;21226;-85
2022/09/28 16:46:59;;;;;;;3.15;1.47;;;14.90;99.90;;;;;;1887946;75;21130;-86
2022/09/28 16:49:51;;;;;;;3.52;1.10;;;14.90;99.90;;;;;;1906754;75;21055;-85
2022/09/28 16:55:52;;;;;;;2.00;0.88;;;14.90;99.90;;;;;;1901668;75;21115;-85
2022/09/28 16:58:46;;;;;;;1.15;0.65;;;14.90;99.90;;;;;;1895811;75;21165;-84
2022/09/28 17:01:41;;;;;;;1.45;0.80;;;14.90;99.90;;;;;;1896265;75;21059;-86
2022/09/28 17:04:29;;;;;;;2.27;0.90;;;14.90;99.90;;;;;;1893497;75;21068;-85
2022/09/28 17:07:21;;;;;;;2.42;1.20;;;14.90;99.90;;;;;;1903472;75;21141;-84
2022/09/28 17:10:20;;;;;;;1.57;0.80;;;14.90;99.90;;;;;;1897699;75;21134;-84
2022/09/28 17:13:13;;;;;;;4.08;1.17;;;14.80;99.90;;;;;;1895904;75;21056;-84
2022/09/28 17:16:09;;;;;;;1.17;0.72;;;14.80;99.90;;;;;;1912548;75;21063;-84
2022/09/28 17:19:00;;;;;;;4.53;1.00;;;14.70;99.90;;;;;;1907019;75;21046;-84
2022/09/28 17:21:53;;;;;;;1.85;0.62;;;14.70;99.90;;;;;;1902451;75;21187;-84